Time;durP1;ratioP1;P1;durP2;ratioP2;P2;SDS_P1;SDS_P2;PMS_P1;PMS_P2;Temp;Humidity;BMP_temperature;BMP_pressure;BME280_temperature;BME280_humidity;BME280_pressure;Samples;Min_cycle;Max_cycle;Signal;HPM_P1;HPM_P2
2023/07/13 00:02:26;;;;;;;14.73;2.57;;;17.60;24.90;;;;;;5014235;28;20387;-74
2023/07/13 00:04:52;;;;;;;12.87;2.83;;;17.60;25.00;;;;;;5032286;28;20549;-74
2023/07/13 00:07:19;;;;;;;7.30;2.27;;;17.50;25.40;;;;;;5032576;28;20489;-74
2023/07/13 00:09:46;;;;;;;6.38;2.08;;;17.50;25.40;;;;;;5031885;28;20426;-75
2023/07/13 00:12:33;;;;;;;9.93;2.50;;;17.60;25.20;;;;;;5031880;28;20794;-75
2023/07/13 00:15:00;;;;;;;9.30;2.90;;;17.60;24.90;;;;;;5014153;28;20419;-74
2023/07/13 00:17:26;;;;;;;7.68;2.67;;;17.60;24.80;;;;;;5031939;28;20387;-75
2023/07/13 00:19:52;;;;;;;7.40;2.47;;;17.60;25.00;;;;;;5031653;28;20403;-75
2023/07/13 00:22:18;;;;;;;7.37;2.50;;;17.70;25.10;;;;;;5031485;28;20567;-75
2023/07/13 00:24:44;;;;;;;9.55;2.55;;;17.60;25.00;;;;;;5032228;28;20861;-75
2023/07/13 00:27:11;;;;;;;8.35;2.47;;;17.60;25.40;;;;;;5032013;28;20384;-75
2023/07/13 00:29:37;;;;;;;8.43;2.37;;;17.50;25.60;;;;;;5031770;28;20411;-73
2023/07/13 00:32:07;;;;;;;10.13;2.35;;;17.50;25.80;;;;;;5031677;28;20767;-74
2023/07/13 00:34:32;;;;;;;9.90;2.40;;;17.40;26.20;;;;;;5032122;28;20379;-74
2023/07/13 00:36:58;;;;;;;8.00;2.80;;;17.30;26.50;;;;;;5032238;28;20391;-75
2023/07/13 00:39:24;;;;;;;9.73;2.57;;;17.30;26.50;;;;;;5031967;28;20464;-75
2023/07/13 00:41:50;;;;;;;5.37;2.30;;;17.30;26.60;;;;;;5031549;28;20383;-74
2023/07/13 00:44:20;;;;;;;10.85;2.72;;;17.30;26.80;;;;;;5031776;28;20513;-73
2023/07/13 00:46:46;;;;;;;10.65;2.70;;;17.40;26.80;;;;;;5031504;28;20895;-73
2023/07/13 00:49:16;;;;;;;9.15;2.60;;;17.30;26.80;;;;;;5031179;28;20391;-74
2023/07/13 00:51:58;;;;;;;10.57;2.30;;;17.30;26.80;;;;;;5030917;28;20394;-73
2023/07/13 00:54:31;;;;;;;10.07;2.65;;;17.30;27.20;;;;;;5031081;28;20916;-73
2023/07/13 00:57:02;;;;;;;6.13;2.47;;;17.20;27.20;;;;;;5031010;28;20395;-73
2023/07/13 00:59:28;;;;;;;10.00;2.30;;;17.20;27.60;;;;;;5030957;28;20411;-74
2023/07/13 01:01:54;;;;;;;7.00;2.07;;;17.20;27.80;;;;;;5030694;28;20986;-74
2023/07/13 01:04:20;;;;;;;10.37;2.60;;;17.20;27.70;;;;;;5030963;28;20467;-74
2023/07/13 01:06:46;;;;;;;9.23;2.13;;;17.20;27.50;;;;;;5030802;28;20474;-74
2023/07/13 01:09:13;;;;;;;5.05;2.30;;;17.20;27.50;;;;;;5031527;28;20932;-74
2023/07/13 01:11:39;;;;;;;5.63;1.90;;;17.30;27.20;;;;;;5030656;28;20422;-72
2023/07/13 01:14:05;;;;;;;8.15;2.20;;;17.30;27.30;;;;;;5013145;28;20388;-73
2023/07/13 01:16:34;;;;;;;13.03;2.50;;;17.30;27.30;;;;;;5030941;28;20722;-73
2023/07/13 01:19:01;;;;;;;5.20;2.10;;;17.30;28.20;;;;;;5030651;28;20746;-73
2023/07/13 01:21:28;;;;;;;9.20;2.47;;;17.20;27.80;;;;;;5057491;22;20433;-76
2023/07/13 01:23:55;;;;;;;12.50;2.40;;;17.00;28.50;;;;;;5051671;28;20802;-75
2023/07/13 01:26:21;;;;;;;7.80;2.17;;;17.00;28.70;;;;;;5050786;28;20373;-76
2023/07/13 01:28:46;;;;;;;12.02;2.30;;;17.10;28.90;;;;;;5050663;28;20446;-75
2023/07/13 01:31:12;;;;;;;7.17;2.03;;;16.90;29.20;;;;;;5045027;28;20391;-75
2023/07/13 01:33:39;;;;;;;10.00;2.60;;;16.90;29.30;;;;;;5070675;28;20907;-76
2023/07/13 01:36:06;;;;;;;14.43;2.70;;;16.90;29.60;;;;;;5070618;28;20388;-74
2023/07/13 01:38:33;;;;;;;5.22;2.50;;;16.90;29.30;;;;;;5070670;28;20404;-74
2023/07/13 01:40:59;;;;;;;8.73;2.33;;;17.10;28.80;;;;;;5070259;28;20379;-74
2023/07/13 01:43:25;;;;;;;7.25;2.30;;;17.00;29.40;;;;;;5070778;28;20380;-74
2023/07/13 01:45:51;;;;;;;13.00;2.65;;;16.90;30.00;;;;;;5070507;28;20839;-74
2023/07/13 01:48:16;;;;;;;12.93;2.40;;;17.00;29.70;;;;;;5070561;28;20749;-75
2023/07/13 01:50:42;;;;;;;8.97;2.60;;;16.90;30.10;;;;;;5070625;28;21074;-76
2023/07/13 01:53:08;;;;;;;13.63;2.53;;;16.90;30.10;;;;;;5070775;28;20825;-75
2023/07/13 01:55:35;;;;;;;9.82;2.55;;;16.80;30.20;;;;;;5070662;28;20474;-75
2023/07/13 01:58:00;;;;;;;5.82;2.15;;;16.80;30.80;;;;;;5070649;28;20396;-74
2023/07/13 02:00:26;;;;;;;7.88;2.30;;;16.70;30.90;;;;;;5053077;28;20397;-75
2023/07/13 02:02:52;;;;;;;7.45;2.20;;;16.80;31.00;;;;;;5070230;28;20459;-75
2023/07/13 02:05:17;;;;;;;9.77;2.33;;;16.80;30.80;;;;;;5070522;28;20437;-75
2023/07/13 02:07:43;;;;;;;10.00;2.57;;;16.80;31.10;;;;;;5070474;28;20392;-75
2023/07/13 02:10:09;;;;;;;4.95;2.10;;;16.70;31.60;;;;;;5070680;28;20492;-77
2023/07/13 02:12:36;;;;;;;10.95;2.10;;;16.70;31.70;;;;;;5053057;28;20430;-75
2023/07/13 02:15:02;;;;;;;10.98;2.40;;;16.80;31.40;;;;;;5070400;28;20442;-75
2023/07/13 02:17:28;;;;;;;9.75;2.67;;;16.70;31.90;;;;;;5070780;28;20380;-76
2023/07/13 02:19:54;;;;;;;8.93;2.17;;;16.50;32.50;;;;;;5071137;28;20380;-76
2023/07/13 02:22:20;;;;;;;6.20;2.50;;;16.40;33.10;;;;;;5053086;28;20394;-75
2023/07/13 02:24:46;;;;;;;9.18;2.22;;;16.30;33.60;;;;;;5070827;28;20883;-76
2023/07/13 02:27:11;;;;;;;11.13;2.67;;;16.30;33.70;;;;;;5071212;28;20380;-76
2023/07/13 02:29:37;;;;;;;8.80;2.40;;;16.40;33.70;;;;;;5053078;28;20420;-76
2023/07/13 02:32:02;;;;;;;8.40;2.50;;;16.40;33.60;;;;;;5070360;28;20463;-76
2023/07/13 02:34:28;;;;;;;9.53;2.47;;;16.40;33.80;;;;;;5070840;28;20449;-76
2023/07/13 02:36:55;;;;;;;13.43;2.90;;;16.40;33.70;;;;;;5069589;28;22358;-75
2023/07/13 02:39:21;;;;;;;7.90;2.40;;;16.40;34.00;;;;;;5070189;28;20492;-76
2023/07/13 02:41:46;;;;;;;7.93;2.50;;;16.30;34.50;;;;;;5070098;28;20481;-74
2023/07/13 02:44:14;;;;;;;7.82;2.17;;;16.40;34.50;;;;;;5070703;28;20434;-76
2023/07/13 02:46:39;;;;;;;6.20;2.30;;;16.40;34.20;;;;;;5075063;28;20879;-76
2023/07/13 02:49:05;;;;;;;9.73;2.60;;;16.50;34.10;;;;;;5075748;28;20454;-76
2023/07/13 02:51:33;;;;;;;7.80;2.25;;;16.50;34.20;;;;;;5075068;28;20932;-75
2023/07/13 02:53:58;;;;;;;6.63;2.30;;;16.40;34.90;;;;;;5077007;28;20387;-76
2023/07/13 02:56:27;;;;;;;10.15;2.70;;;16.40;34.70;;;;;;5075728;28;20470;-75
2023/07/13 02:58:54;;;;;;;8.32;2.60;;;16.50;34.70;;;;;;5073676;28;20395;-76
2023/07/13 03:01:20;;;;;;;11.93;2.75;;;16.60;34.20;;;;;;5073393;28;20437;-75
2023/07/13 03:03:46;;;;;;;16.13;2.88;;;16.60;34.10;;;;;;5055418;28;20383;-75
2023/07/13 03:06:12;;;;;;;11.18;2.40;;;16.50;34.90;;;;;;5073322;28;20428;-76
2023/07/13 03:08:38;;;;;;;7.95;2.45;;;16.40;35.20;;;;;;5073185;28;20421;-76
2023/07/13 03:11:10;;;;;;;7.70;2.80;;;16.30;35.50;;;;;;5073248;28;20419;-76
2023/07/13 03:13:36;;;;;;;10.10;2.78;;;16.30;35.60;;;;;;5073375;28;20384;-75
2023/07/13 03:16:02;;;;;;;9.27;2.90;;;16.30;35.70;;;;;;5073094;28;20805;-76
2023/07/13 03:18:28;;;;;;;8.90;2.50;;;16.30;35.70;;;;;;5073700;28;20411;-76
2023/07/13 03:20:53;;;;;;;7.38;2.08;;;16.30;35.70;;;;;;5072945;28;20771;-75
2023/07/13 03:23:20;;;;;;;8.85;2.50;;;16.30;35.90;;;;;;5074108;28;20379;-75
2023/07/13 03:25:46;;;;;;;7.45;2.30;;;16.30;36.10;;;;;;5074039;28;20388;-76
2023/07/13 03:28:12;;;;;;;13.45;3.00;;;16.30;35.90;;;;;;5073791;28;20824;-75
2023/07/13 03:30:39;;;;;;;10.82;2.80;;;16.40;35.90;;;;;;5073316;28;20452;-75
2023/07/13 03:33:05;;;;;;;12.32;2.80;;;16.30;36.40;;;;;;5073167;28;20846;-75
2023/07/13 03:35:32;;;;;;;10.18;2.53;;;16.20;36.70;;;;;;5073272;28;20860;-75
2023/07/13 03:37:58;;;;;;;12.75;2.58;;;16.20;36.80;;;;;;5074522;28;20818;-76
2023/07/13 03:40:25;;;;;;;10.93;2.50;;;16.20;37.00;;;;;;5075864;28;20429;-76
2023/07/13 03:42:51;;;;;;;10.90;2.90;;;16.10;37.10;;;;;;5087836;28;20376;-73
2023/07/13 03:45:17;;;;;;;9.23;2.60;;;16.10;37.30;;;;;;5096597;28;20402;-73
2023/07/13 03:47:43;;;;;;;10.00;2.20;;;16.40;36.30;;;;;;5089679;28;20410;-76
2023/07/13 03:50:09;;;;;;;10.68;2.45;;;16.30;36.40;;;;;;5080254;28;20452;-74
2023/07/13 03:52:34;;;;;;;9.45;2.95;;;16.30;36.60;;;;;;5076682;28;20390;-77
2023/07/13 03:55:00;;;;;;;11.82;2.80;;;16.30;36.80;;;;;;5073152;28;20868;-76
2023/07/13 03:57:25;;;;;;;9.63;2.70;;;16.30;36.80;;;;;;5071877;28;20379;-75
2023/07/13 03:59:51;;;;;;;9.23;2.80;;;16.20;37.20;;;;;;5073683;28;20422;-76
2023/07/13 04:02:17;;;;;;;17.87;3.93;;;16.40;36.40;;;;;;5054597;28;20404;-76
2023/07/13 04:04:43;;;;;;;10.60;2.85;;;16.20;36.80;;;;;;5056255;28;20923;-77
2023/07/13 04:07:08;;;;;;;11.67;2.60;;;16.30;37.10;;;;;;5073904;28;20380;-75
2023/07/13 04:09:35;;;;;;;15.10;2.77;;;16.30;37.00;;;;;;5072481;28;20387;-74
2023/07/13 04:12:00;;;;;;;11.60;2.43;;;16.30;36.80;;;;;;5071763;28;20383;-75
2023/07/13 04:14:26;;;;;;;9.77;2.37;;;16.40;35.90;;;;;;5072183;28;20390;-76
2023/07/13 04:16:51;;;;;;;14.10;2.88;;;16.50;35.90;;;;;;5071892;28;20384;-75
2023/07/13 04:19:17;;;;;;;7.05;2.30;;;16.60;35.50;;;;;;5071518;28;20884;-76
2023/07/13 04:21:42;;;;;;;9.50;2.73;;;16.70;34.60;;;;;;5070873;28;20760;-75
2023/07/13 04:24:08;;;;;;;7.30;2.43;;;16.70;34.90;;;;;;5072647;28;20380;-75
2023/07/13 04:26:36;;;;;;;9.80;2.50;;;16.60;35.10;;;;;;5071966;28;20454;-75
2023/07/13 04:29:03;;;;;;;9.40;2.70;;;16.60;34.90;;;;;;5071993;28;20384;-77
2023/07/13 04:31:29;;;;;;;6.53;2.60;;;16.60;35.20;;;;;;5071726;28;20394;-76
2023/07/13 04:33:55;;;;;;;12.38;3.20;;;16.60;35.30;;;;;;5054219;28;20392;-75
2023/07/13 04:36:21;;;;;;;11.38;2.55;;;16.70;35.00;;;;;;5071336;28;20383;-75
2023/07/13 04:38:46;;;;;;;15.38;3.17;;;16.60;35.10;;;;;;5072302;28;20403;-77
2023/07/13 04:41:14;;;;;;;13.53;3.10;;;16.70;34.80;;;;;;5053247;28;20391;-76
2023/07/13 04:43:40;;;;;;;8.30;3.03;;;16.90;34.70;;;;;;5071431;28;20859;-75
2023/07/13 04:46:12;;;;;;;8.35;3.17;;;16.70;35.00;;;;;;5071521;28;20388;-75
2023/07/13 04:48:38;;;;;;;10.60;3.20;;;16.80;34.80;;;;;;5071835;28;20411;-74
2023/07/13 04:51:04;;;;;;;12.60;3.40;;;16.80;34.70;;;;;;5071545;28;20478;-76
2023/07/13 04:53:32;;;;;;;8.43;3.00;;;16.80;34.90;;;;;;5071507;28;20386;-74
2023/07/13 04:55:58;;;;;;;12.32;3.40;;;16.70;35.50;;;;;;5053555;28;21044;-77
2023/07/13 04:58:24;;;;;;;8.73;3.40;;;16.80;35.20;;;;;;5071934;28;20411;-76
2023/07/13 05:00:50;;;;;;;10.38;3.30;;;16.80;35.10;;;;;;5071208;28;20471;-75
2023/07/13 05:03:16;;;;;;;12.15;3.80;;;16.80;34.90;;;;;;5071593;28;20383;-77
2023/07/13 05:05:42;;;;;;;13.32;3.65;;;16.80;35.30;;;;;;5072050;28;20383;-75
2023/07/13 05:08:07;;;;;;;16.08;4.10;;;16.70;35.70;;;;;;5073244;28;20383;-76
2023/07/13 05:10:35;;;;;;;13.80;3.60;;;16.80;35.60;;;;;;5053848;28;20426;-74
2023/07/13 05:13:00;;;;;;;13.90;3.00;;;16.90;35.70;;;;;;5053196;28;20388;-76
2023/07/13 05:15:26;;;;;;;11.25;3.90;;;17.10;34.60;;;;;;5053609;28;20860;-76
2023/07/13 05:17:52;;;;;;;9.57;3.65;;;17.10;34.70;;;;;;5071284;28;20990;-75
2023/07/13 05:20:19;;;;;;;8.80;4.20;;;17.10;34.70;;;;;;5071302;28;20479;-76
2023/07/13 05:22:48;;;;;;;10.00;3.40;;;17.20;34.30;;;;;;5074963;28;20876;-76
2023/07/13 05:25:14;;;;;;;14.47;3.67;;;17.40;34.00;;;;;;5071842;28;20406;-76
2023/07/13 05:27:40;;;;;;;10.50;3.10;;;17.50;33.60;;;;;;5071425;28;20430;-75
2023/07/13 05:30:06;;;;;;;10.40;3.70;;;17.70;32.90;;;;;;5072465;28;20427;-76
2023/07/13 05:32:33;;;;;;;12.80;3.70;;;17.60;33.50;;;;;;5072931;28;20387;-75
2023/07/13 05:34:58;;;;;;;11.50;3.10;;;17.60;33.30;;;;;;5071590;28;20380;-76
2023/07/13 05:37:24;;;;;;;12.50;3.50;;;17.70;32.70;;;;;;5071169;28;20462;-75
2023/07/13 05:39:49;;;;;;;11.85;3.50;;;17.70;33.40;;;;;;5070539;28;20383;-75
2023/07/13 05:42:15;;;;;;;13.63;3.70;;;17.60;33.50;;;;;;5071800;28;20883;-76
2023/07/13 05:44:40;;;;;;;11.60;3.30;;;17.70;33.30;;;;;;5073496;28;20872;-76
2023/07/13 05:47:06;;;;;;;13.15;3.30;;;17.60;33.80;;;;;;5071821;28;20392;-76
2023/07/13 05:49:32;;;;;;;22.83;3.97;;;17.40;34.40;;;;;;5073922;28;20990;-76
2023/07/13 05:51:57;;;;;;;18.73;4.23;;;17.30;35.00;;;;;;5072515;28;20395;-76
2023/07/13 05:54:23;;;;;;;15.07;3.88;;;17.40;35.00;;;;;;5071032;28;20408;-76
2023/07/13 05:56:48;;;;;;;10.45;3.65;;;17.40;34.90;;;;;;5070890;28;20868;-75
2023/07/13 05:59:14;;;;;;;12.30;3.70;;;17.40;35.20;;;;;;5071432;28;20409;-76
2023/07/13 06:01:40;;;;;;;13.77;3.70;;;17.40;35.30;;;;;;5071155;28;20388;-75
2023/07/13 06:04:06;;;;;;;11.52;3.58;;;17.50;34.90;;;;;;5071946;28;20868;-77
2023/07/13 06:06:32;;;;;;;12.73;4.30;;;17.40;35.70;;;;;;5071843;28;20387;-75
2023/07/13 06:08:57;;;;;;;12.82;4.20;;;17.50;35.70;;;;;;5053179;28;20491;-75
2023/07/13 06:11:25;;;;;;;14.90;4.20;;;17.70;35.00;;;;;;5071651;28;20415;-77
2023/07/13 06:13:51;;;;;;;13.68;4.40;;;17.70;34.90;;;;;;5071835;28;20384;-75
2023/07/13 06:16:18;;;;;;;17.80;3.88;;;17.80;34.60;;;;;;5054201;28;20950;-76
2023/07/13 06:18:44;;;;;;;10.20;3.97;;;17.80;34.40;;;;;;5054136;28;20418;-76
2023/07/13 06:21:12;;;;;;;12.60;3.60;;;17.90;34.60;;;;;;5052853;28;20401;-75
2023/07/13 06:23:37;;;;;;;15.10;4.00;;;17.90;34.60;;;;;;5055642;28;20385;-75
2023/07/13 06:26:04;;;;;;;9.77;3.93;;;17.80;35.30;;;;;;5055344;28;20472;-76
2023/07/13 06:28:31;;;;;;;12.47;3.17;;;17.90;35.10;;;;;;5055430;28;20409;-75
2023/07/13 06:30:57;;;;;;;13.20;4.57;;;18.20;33.60;;;;;;5059829;28;20389;-76
2023/07/13 06:33:23;;;;;;;14.90;4.10;;;18.40;33.60;;;;;;5055191;28;20475;-76
2023/07/13 06:35:48;;;;;;;8.53;3.93;;;18.40;34.10;;;;;;5055013;28;20460;-75
2023/07/13 06:38:14;;;;;;;12.50;4.15;;;18.60;32.50;;;;;;5054368;28;20463;-76
2023/07/13 06:40:40;;;;;;;11.70;4.00;;;18.80;32.10;;;;;;5054600;28;20388;-75
2023/07/13 06:43:06;;;;;;;15.80;4.10;;;19.10;31.50;;;;;;5054319;28;20504;-75
2023/07/13 06:45:40;;;;;;;13.43;3.80;;;19.60;29.40;;;;;;5054694;28;20392;-76
2023/07/13 06:48:05;;;;;;;15.40;4.18;;;19.80;28.80;;;;;;5053395;28;20393;-74
2023/07/13 06:50:31;;;;;;;13.90;4.40;;;19.80;28.80;;;;;;5047301;28;20419;-75
2023/07/13 06:52:56;;;;;;;10.07;3.80;;;20.00;28.30;;;;;;5037330;28;20389;-73
2023/07/13 06:55:22;;;;;;;15.30;4.50;;;19.90;28.50;;;;;;5043749;28;20492;-73
2023/07/13 06:57:47;;;;;;;11.73;4.33;;;19.70;28.80;;;;;;5039298;28;20406;-73
2023/07/13 07:00:14;;;;;;;10.13;4.10;;;19.60;29.70;;;;;;5035121;28;20397;-75
2023/07/13 07:02:39;;;;;;;11.50;4.20;;;19.50;30.00;;;;;;5047032;28;20404;-75
2023/07/13 07:05:05;;;;;;;9.20;3.83;;;19.50;30.00;;;;;;5039715;28;20782;-75
2023/07/13 07:07:31;;;;;;;13.70;4.75;;;19.60;29.60;;;;;;5047031;28;20397;-76
2023/07/13 07:09:56;;;;;;;11.20;4.07;;;19.80;29.00;;;;;;5036302;28;20887;-77
2023/07/13 07:12:22;;;;;;;13.00;4.18;;;19.90;28.80;;;;;;5038096;28;20933;-76
2023/07/13 07:14:47;;;;;;;12.25;4.40;;;19.90;28.50;;;;;;5039806;28;20403;-77
2023/07/13 07:17:13;;;;;;;12.20;4.13;;;20.00;29.00;;;;;;5035932;28;20393;-76
2023/07/13 07:19:39;;;;;;;12.63;4.20;;;20.00;28.10;;;;;;5045567;28;20413;-76
2023/07/13 07:22:04;;;;;;;11.23;3.97;;;19.90;28.30;;;;;;5070721;28;20396;-76
2023/07/13 07:24:30;;;;;;;14.27;4.27;;;20.00;27.80;;;;;;5071347;28;20399;-75
2023/07/13 07:26:55;;;;;;;10.40;4.20;;;20.30;27.70;;;;;;5070891;28;20836;-74
2023/07/13 07:29:22;;;;;;;16.08;5.93;;;20.50;27.00;;;;;;5062398;28;20878;-74
2023/07/13 07:31:47;;;;;;;13.85;4.35;;;20.70;26.60;;;;;;5063757;28;20423;-73
2023/07/13 07:34:13;;;;;;;9.60;3.80;;;20.80;26.10;;;;;;5065554;28;20436;-73
2023/07/13 07:36:38;;;;;;;13.23;4.33;;;21.00;25.30;;;;;;5051007;28;20389;-73
2023/07/13 07:39:04;;;;;;;13.83;4.30;;;20.70;25.80;;;;;;5050761;28;20460;-73
2023/07/13 07:41:30;;;;;;;14.27;3.95;;;20.30;26.90;;;;;;5053350;28;20480;-73
2023/07/13 07:43:56;;;;;;;13.82;4.30;;;20.40;26.70;;;;;;5050824;28;20390;-75
2023/07/13 07:46:21;;;;;;;18.87;4.90;;;20.30;27.10;;;;;;5060489;28;20395;-73
2023/07/13 07:48:47;;;;;;;13.73;4.30;;;20.50;26.70;;;;;;5052990;28;20535;-73
2023/07/13 07:51:12;;;;;;;11.95;4.55;;;20.80;25.70;;;;;;5054460;28;20387;-73
2023/07/13 07:53:38;;;;;;;11.87;4.63;;;21.10;25.10;;;;;;5071137;28;20438;-73
2023/07/13 07:56:03;;;;;;;16.97;4.43;;;21.20;24.50;;;;;;5071074;28;20379;-72
2023/07/13 07:58:29;;;;;;;14.20;4.30;;;21.10;25.50;;;;;;5051296;28;20405;-76
2023/07/13 08:01:02;;;;;;;8.83;4.00;;;21.30;24.30;;;;;;5050119;28;20479;-73
2023/07/13 08:03:28;;;;;;;12.73;4.20;;;21.60;23.90;;;;;;5057229;28;20506;-74
2023/07/13 08:05:53;;;;;;;12.45;4.05;;;21.70;23.10;;;;;;5069035;28;20471;-75
2023/07/13 08:08:19;;;;;;;11.32;3.80;;;21.60;23.10;;;;;;5057564;28;20453;-75
2023/07/13 08:10:44;;;;;;;13.60;5.10;;;21.50;23.70;;;;;;5069643;28;20380;-75
2023/07/13 08:13:10;;;;;;;11.18;4.13;;;21.40;24.30;;;;;;5058132;28;20492;-75
2023/07/13 08:15:37;;;;;;;9.40;4.10;;;21.70;23.80;;;;;;5049893;28;20467;-75
2023/07/13 08:18:02;;;;;;;11.27;3.70;;;21.60;23.70;;;;;;5049974;28;20436;-74
2023/07/13 08:20:28;;;;;;;10.77;4.07;;;21.60;23.70;;;;;;5048025;28;20811;-73
2023/07/13 08:22:54;;;;;;;16.03;4.50;;;21.80;23.70;;;;;;5049622;28;20415;-75
2023/07/13 08:25:20;;;;;;;10.23;3.63;;;21.70;23.70;;;;;;5049311;28;20563;-74
2023/07/13 08:27:46;;;;;;;13.17;3.93;;;21.80;23.80;;;;;;5049550;28;20401;-74
2023/07/13 08:30:12;;;;;;;13.80;3.80;;;21.90;23.50;;;;;;5049599;28;20443;-75
2023/07/13 08:32:38;;;;;;;12.02;4.40;;;21.90;23.50;;;;;;5048617;28;20819;-74
2023/07/13 08:35:04;;;;;;;14.55;4.00;;;21.80;23.50;;;;;;5044794;28;20397;-73
2023/07/13 08:37:30;;;;;;;13.63;4.10;;;22.20;22.80;;;;;;5036476;28;20410;-74
2023/07/13 08:39:55;;;;;;;10.60;3.97;;;22.60;21.60;;;;;;5030632;28;20395;-74
2023/07/13 08:42:46;;;;;;;9.48;4.20;;;22.70;21.20;;;;;;5036307;28;20515;-74
2023/07/13 08:45:32;;;;;;;11.55;4.10;;;22.80;21.50;;;;;;5050452;28;20425;-75
2023/07/13 08:48:08;;;;;;;10.77;3.80;;;22.80;21.30;;;;;;5030798;28;20398;-73
2023/07/13 08:50:43;;;;;;;13.20;3.63;;;23.00;20.50;;;;;;5030747;28;20912;-75
2023/07/13 08:53:12;;;;;;;15.63;4.32;;;22.80;20.80;;;;;;5036434;28;20401;-73
2023/07/13 08:55:39;;;;;;;15.30;4.70;;;22.40;21.90;;;;;;5050893;28;20885;-73
2023/07/13 08:58:13;;;;;;;17.40;4.57;;;22.20;22.50;;;;;;5049697;28;20401;-74
2023/07/13 09:01:05;;;;;;;13.40;4.20;;;22.10;23.00;;;;;;5029690;28;20395;-74
2023/07/13 09:03:40;;;;;;;16.80;4.03;;;22.40;22.80;;;;;;5041457;28;20370;-75
2023/07/13 09:06:08;;;;;;;14.80;4.00;;;22.40;23.00;;;;;;5051534;28;20377;-75
2023/07/13 09:08:48;;;;;;;20.20;4.97;;;22.70;21.90;;;;;;5047699;28;20440;-73
2023/07/13 09:11:27;;;;;;;18.50;5.00;;;22.70;22.30;;;;;;5050012;28;20408;-73
2023/07/13 09:14:19;;;;;;;16.25;4.50;;;22.70;22.30;;;;;;5050948;28;20394;-72
2023/07/13 09:16:48;;;;;;;13.97;4.40;;;23.00;21.30;;;;;;5049540;28;20381;-73
2023/07/13 09:19:23;;;;;;;15.05;4.43;;;23.10;20.60;;;;;;5049121;28;20426;-74
2023/07/13 09:21:52;;;;;;;15.10;4.70;;;22.90;21.70;;;;;;5044818;28;20748;-75
2023/07/13 09:24:37;;;;;;;14.82;4.32;;;23.10;20.40;;;;;;5050044;28;20378;-74
2023/07/13 09:27:28;;;;;;;15.75;4.20;;;23.00;20.90;;;;;;5033241;28;20402;-74
2023/07/13 09:30:11;;;;;;;10.52;4.00;;;23.30;20.20;;;;;;5031390;28;20476;-73
2023/07/13 09:32:39;;;;;;;17.25;4.40;;;23.60;19.70;;;;;;5049410;28;20373;-74
2023/07/13 09:35:11;;;;;;;13.90;4.28;;;23.60;19.40;;;;;;5051683;28;20515;-73
2023/07/13 09:37:37;;;;;;;17.83;4.40;;;23.70;19.60;;;;;;5062426;28;20396;-75
2023/07/13 09:40:04;;;;;;;17.05;4.38;;;23.50;19.20;;;;;;5082296;28;20734;-74
2023/07/13 09:42:32;;;;;;;14.40;3.70;;;23.20;20.00;;;;;;5083245;28;20376;-73
2023/07/13 09:45:02;;;;;;;7.47;3.30;;;23.30;19.60;;;;;;5088369;28;20391;-74
2023/07/13 09:47:37;;;;;;;12.98;3.70;;;23.30;19.60;;;;;;5076592;28;20477;-74
2023/07/13 09:50:09;;;;;;;11.48;3.85;;;23.30;20.00;;;;;;5064350;28;20396;-73
2023/07/13 09:52:44;;;;;;;10.75;3.55;;;23.50;19.30;;;;;;5064211;28;20790;-75
2023/07/13 09:55:40;;;;;;;10.13;3.53;;;23.60;18.80;;;;;;5071959;28;20455;-74
2023/07/13 09:58:16;;;;;;;11.68;3.40;;;23.80;18.30;;;;;;5054826;28;20740;-77
2023/07/13 10:00:52;;;;;;;7.80;3.23;;;23.70;17.80;;;;;;5058275;28;20410;-76
2023/07/13 10:03:23;;;;;;;9.80;3.50;;;23.60;18.50;;;;;;5076161;28;20398;-75
2023/07/13 10:05:52;;;;;;;11.23;3.60;;;23.70;18.00;;;;;;5074730;28;20391;-76
2023/07/13 10:08:24;;;;;;;7.95;3.20;;;23.90;17.70;;;;;;5075148;28;20471;-76
2023/07/13 10:11:23;;;;;;;10.95;3.50;;;24.20;17.30;;;;;;5061301;28;20477;-73
2023/07/13 10:13:55;;;;;;;9.40;3.10;;;23.70;17.70;;;;;;5048868;28;20485;-75
2023/07/13 10:16:22;;;;;;;9.25;3.22;;;23.30;18.30;;;;;;5054371;28;20443;-75
2023/07/13 10:19:00;;;;;;;9.55;3.50;;;23.40;18.80;;;;;;5053837;28;20440;-74
2023/07/13 10:21:42;;;;;;;8.82;3.15;;;23.50;18.50;;;;;;5053895;28;20396;-77
2023/07/13 10:24:23;;;;;;;11.37;3.03;;;23.50;18.00;;;;;;5054426;28;20381;-74
2023/07/13 10:27:15;;;;;;;8.63;3.22;;;23.50;18.30;;;;;;5055131;28;20389;-77
2023/07/13 10:29:55;;;;;;;11.77;3.40;;;23.70;17.80;;;;;;5053933;28;20381;-77
2023/07/13 10:32:24;;;;;;;11.57;3.00;;;23.90;17.10;;;;;;5053920;28;20403;-74
2023/07/13 10:34:52;;;;;;;9.48;3.15;;;23.70;16.30;;;;;;5070037;28;20805;-75
2023/07/13 10:37:36;;;;;;;7.45;2.55;;;23.60;17.40;;;;;;5073921;28;20390;-74
2023/07/13 10:40:04;;;;;;;7.32;2.75;;;23.60;16.90;;;;;;5055807;28;20395;-75
2023/07/13 10:42:38;;;;;;;11.57;3.45;;;23.90;16.90;;;;;;5073836;28;20390;-75
2023/07/13 10:45:14;;;;;;;9.60;2.65;;;23.70;17.20;;;;;;5074135;28;20455;-75
2023/07/13 10:47:40;;;;;;;9.17;3.40;;;23.70;17.50;;;;;;5073804;28;20670;-75
2023/07/13 10:50:08;;;;;;;11.15;3.20;;;24.10;16.80;;;;;;5073827;28;20510;-74
2023/07/13 10:52:41;;;;;;;7.40;2.80;;;24.10;16.50;;;;;;5068172;28;20428;-75
2023/07/13 10:55:37;;;;;;;14.37;3.30;;;23.80;17.00;;;;;;5053562;28;20374;-73
2023/07/13 10:58:18;;;;;;;12.15;3.30;;;24.00;16.70;;;;;;5053640;28;20909;-74
2023/07/13 11:01:05;;;;;;;7.50;2.90;;;24.00;16.70;;;;;;5053171;28;20484;-76
2023/07/13 11:03:33;;;;;;;11.07;3.57;;;23.50;17.60;;;;;;5053197;28;20480;-75
2023/07/13 11:06:15;;;;;;;13.15;3.40;;;23.50;17.60;;;;;;5052622;28;20424;-75
2023/07/13 11:08:46;;;;;;;10.88;2.90;;;23.30;17.70;;;;;;5053467;28;20821;-73
2023/07/13 11:11:24;;;;;;;9.63;2.80;;;23.30;17.70;;;;;;5053170;28;20389;-77
2023/07/13 11:13:50;;;;;;;12.20;3.57;;;23.50;17.50;;;;;;5072581;28;20431;-74
2023/07/13 11:16:18;;;;;;;9.40;2.97;;;23.70;16.80;;;;;;5067866;28;20479;-74
2023/07/13 11:19:15;;;;;;;9.43;2.85;;;23.80;17.00;;;;;;5052921;28;20886;-75
2023/07/13 11:22:05;;;;;;;7.75;2.50;;;23.70;16.60;;;;;;5065332;28;20880;-75
2023/07/13 11:24:57;;;;;;;8.73;3.00;;;23.60;16.30;;;;;;5053201;28;20726;-74
2023/07/13 11:27:38;;;;;;;8.10;2.80;;;23.50;17.30;;;;;;5065619;28;20407;-77
2023/07/13 11:30:18;;;;;;;9.70;2.78;;;23.50;16.80;;;;;;5071051;28;20884;-74
2023/07/13 11:32:43;;;;;;;7.20;2.50;;;23.50;17.20;;;;;;5071604;28;20415;-76
2023/07/13 11:35:17;;;;;;;6.77;2.80;;;23.50;16.60;;;;;;5074950;28;20376;-74
2023/07/13 11:37:46;;;;;;;8.73;2.70;;;23.60;16.00;;;;;;5067761;28;20426;-73
2023/07/13 11:40:14;;;;;;;7.55;2.53;;;23.70;16.40;;;;;;5073310;28;20869;-74
2023/07/13 11:42:40;;;;;;;6.72;2.65;;;23.60;16.30;;;;;;5073524;28;20740;-74
2023/07/13 11:45:22;;;;;;;8.23;2.90;;;23.60;16.40;;;;;;5075648;28;20419;-77
2023/07/13 11:47:49;;;;;;;4.82;2.42;;;23.70;16.60;;;;;;5055529;28;20415;-77
2023/07/13 11:50:24;;;;;;;9.15;3.17;;;23.80;16.90;;;;;;5072426;28;20388;-75
2023/07/13 11:52:53;;;;;;;9.63;3.40;;;24.10;16.00;;;;;;5072572;28;20371;-75
2023/07/13 11:55:21;;;;;;;9.85;2.90;;;24.30;16.60;;;;;;5072465;28;20384;-75
2023/07/13 11:58:09;;;;;;;13.07;3.20;;;24.50;15.60;;;;;;5067431;28;20396;-75
2023/07/13 12:00:36;;;;;;;7.57;3.55;;;24.70;15.50;;;;;;5060751;28;20421;-75
2023/07/13 12:03:04;;;;;;;6.55;2.50;;;25.20;13.80;;;;;;5057698;28;20392;-76
2023/07/13 12:05:32;;;;;;;10.77;3.20;;;25.30;12.10;;;;;;5068578;28;20388;-74
2023/07/13 12:07:57;;;;;;;11.05;3.20;;;25.50;12.20;;;;;;5068773;28;20438;-74
2023/07/13 12:10:29;;;;;;;9.00;2.50;;;25.50;13.20;;;;;;5072087;28;20420;-74
2023/07/13 12:12:57;;;;;;;7.68;2.65;;;25.40;13.10;;;;;;5053740;28;20880;-74
2023/07/13 12:15:30;;;;;;;7.40;2.40;;;25.00;12.80;;;;;;5071533;28;20395;-74
2023/07/13 12:17:56;;;;;;;9.77;2.58;;;24.60;12.90;;;;;;5066266;28;20414;-75
2023/07/13 12:20:27;;;;;;;7.80;2.80;;;24.40;14.00;;;;;;5071939;28;20396;-74
2023/07/13 12:22:53;;;;;;;6.07;2.47;;;24.90;12.80;;;;;;5061010;28;20431;-74
2023/07/13 12:25:20;;;;;;;6.35;2.20;;;25.30;11.50;;;;;;5055441;28;20456;-74
2023/07/13 12:27:50;;;;;;;9.13;2.40;;;25.30;11.80;;;;;;5071487;28;20388;-74
2023/07/13 12:30:26;;;;;;;8.90;2.40;;;25.60;10.60;;;;;;5071449;28;20384;-74
2023/07/13 12:33:00;;;;;;;6.40;2.40;;;25.70;9.90;;;;;;5070412;28;20388;-73
2023/07/13 12:35:29;;;;;;;9.05;2.45;;;25.30;10.80;;;;;;5071558;28;20387;-73
2023/07/13 12:37:57;;;;;;;5.88;2.22;;;25.30;11.10;;;;;;5072157;28;20510;-74
2023/07/13 12:40:36;;;;;;;5.88;2.08;;;25.50;11.00;;;;;;5061271;28;20394;-75
2023/07/13 12:43:04;;;;;;;5.40;2.10;;;25.80;10.00;;;;;;5059395;28;20864;-75
2023/07/13 12:45:31;;;;;;;7.93;2.20;;;25.90;9.30;;;;;;5072536;28;20391;-74
2023/07/13 12:48:12;;;;;;;2.85;1.80;;;25.80;8.50;;;;;;5072006;28;20404;-73
2023/07/13 12:50:41;;;;;;;7.05;2.17;;;25.50;8.90;;;;;;5071683;28;20820;-76